Mosquitoville, Vermont
Current Conditions -  °F | °C
As of 1:51 PM on Thursday 30 Oct 2014 (Local Time) from KMPV Reporting Station
Broken Clouds Broken Clouds  
Wind Chill: 41°   Ceiling: 4100
Heat Index: 45°   Visibility: 10mi
Dew Point: 33°   Wind: 8mph
Humidity: 63%   Direction: 300°WNW
Pressure: 29.97"   Gusts: NA
Location:  44.1959°N, 72.0788°W
Report Text: KMPV 301751Z AUTO 30007KT 10SM BKN041 07/01 A2997 RMK AO2 SLP156 60000 T00720006 10078 20056 58002
Loading
Personal Weather Stations






























Interactive Weather Map
Tropical Storm Tracking
New forecast layout! Learn more

10-Day Weather Forecast

Advertisements
Track Severe Weather on mobile